This is the latest recevied weather packets stored in our database for station/object WC4PEM-11. If no packets are shown the sender has not sent any weather packets the latest 1 day(s).
| Time | Temp. | Humidity | Pressure | Rain* | Wind** | Luminosity | Snow |
|---|---|---|---|---|---|---|---|
| 1778082782 | 30° C | 57% | 1017.2 hPa | 0 mm | - | - | - |
| 1778082182 | 30° C | 55% | 1017.3 hPa | 0 mm | - | - | - |
| 1778081882 | 30° C | 57% | 1017.3 hPa | 0 mm | - | - | - |
| 1778081582 | 30° C | 58% | 1017.3 hPa | 0 mm | - | - | - |
| 1778081282 | 29.44° C | 60% | 1017.3 hPa | 0 mm | - | - | - |
| 1778080982 | 30° C | 61% | 1017.3 hPa | 0 mm | - | - | - |
| 1778080682 | 29.44° C | 62% | 1017.4 hPa | 0 mm | - | - | - |
| 1778080618 | 29.44° C | 63% | 1017.4 hPa | 0 mm | - | - | - |
| 1778080382 | 29.44° C | 63% | 1017.4 hPa | 0 mm | - | - | - |
| 1778080082 | 29.44° C | 62% | 1017.3 hPa | 0 mm | - | - | - |
| 1778078882 | 28.33° C | 68% | 1017.5 hPa | 0 mm | - | - | - |
| 1778078621 | 28.33° C | 69% | 1017.5 hPa | 0 mm | - | - | - |
| 1778078283 | 28.33° C | 69% | 1017.5 hPa | 0 mm | - | - | - |
| 1778076458 | 26.11° C | 79% | 1017.4 hPa | 0 mm | - | - | - |
| 1778075282 | 25.56° C | 80% | 1017.4 hPa | 0 mm | - | - | - |
| 1778074140 | 25° C | 83% | 1017.4 hPa | 0 mm | - | - | - |
| 1778071736 | 22.78° C | 88% | 1016.9 hPa | 0 mm | - | - | - |
| 1778069024 | 20.56° C | 95% | 1016.6 hPa | 0 mm | - | - | - |
| 1778067218 | 18.89° C | 95% | 1016.4 hPa | 0 mm | - | - | - |
| 1778060617 | 18.33° C | 92% | 1015.9 hPa | 0 mm | - | - | - |
| 1778060298 | 18.33° C | 92% | 1015.5 hPa | 0 mm | - | - | - |
| 1778060038 | 18.33° C | 92% | 1015.5 hPa | 0 mm | - | - | - |
| 1778059171 | 18.33° C | 91% | 1015.6 hPa | 0 mm | - | - | - |
| 1778059083 | 18.33° C | 91% | 1015.6 hPa | 0 mm | - | - | - |
| 1778058783 | 18.33° C | 91% | 1015.5 hPa | 0 mm | - | - | - |
* Rain latest hour (hover to see other rain measurements)
** Current wind speed in m/s (hover to see current wind gust speed)